createdAt,value
2018-06-18T00:00:27.890Z,15.42
2018-06-18T00:02:56.847Z,15.40
2018-06-18T00:05:25.723Z,15.40
2018-06-18T00:07:54.487Z,15.40
2018-06-18T00:10:23.335Z,15.39
2018-06-18T00:12:52.128Z,15.37
2018-06-18T00:15:20.872Z,15.35
2018-06-18T00:17:49.663Z,15.37
2018-06-18T00:20:18.486Z,15.40
2018-06-18T00:22:47.249Z,15.35
2018-06-18T00:25:16.068Z,15.28
2018-06-18T00:27:44.846Z,15.30
2018-06-18T00:30:13.625Z,15.36
2018-06-18T00:32:42.460Z,15.33
2018-06-18T00:35:11.400Z,15.32
2018-06-18T00:37:40.235Z,15.28
2018-06-18T00:40:09.045Z,15.29
2018-06-18T00:42:38.000Z,15.29
2018-06-18T00:45:06.923Z,15.28
2018-06-18T00:47:35.685Z,15.27
2018-06-18T00:50:04.730Z,15.31
2018-06-18T00:52:33.491Z,15.30
2018-06-18T00:55:02.290Z,15.28
2018-06-18T00:57:31.090Z,15.34
2018-06-18T00:59:59.933Z,15.31
2018-06-18T01:02:28.743Z,15.26
2018-06-18T01:04:57.566Z,15.22
2018-06-18T01:07:26.365Z,15.20
2018-06-18T01:09:55.145Z,15.19
2018-06-18T01:12:23.975Z,15.23
2018-06-18T01:14:52.712Z,15.22
2018-06-18T01:17:21.619Z,15.22
2018-06-18T01:19:50.581Z,15.17
2018-06-18T01:22:19.378Z,15.17
2018-06-18T01:25:06.255Z,15.17
2018-06-18T01:27:35.140Z,15.19
2018-06-18T01:30:03.985Z,15.14
2018-06-18T01:32:33.164Z,15.21
2018-06-18T01:35:01.947Z,15.24
2018-06-18T01:37:30.730Z,15.28
2018-06-18T01:39:59.857Z,15.30
2018-06-18T01:42:28.641Z,15.40
2018-06-18T01:44:57.416Z,15.45
2018-06-18T01:47:26.372Z,15.53
2018-06-18T01:49:55.188Z,15.64
2018-06-18T01:52:23.950Z,15.77
2018-06-18T01:54:52.885Z,15.84
2018-06-18T01:57:21.642Z,15.95
2018-06-18T01:59:50.490Z,15.99
2018-06-18T02:02:19.305Z,16.04
2018-06-18T02:04:48.069Z,16.11
2018-06-18T02:07:16.832Z,16.15
2018-06-18T02:09:45.764Z,16.21
2018-06-18T02:12:14.547Z,16.21
2018-06-18T02:14:43.335Z,16.27
2018-06-18T02:17:12.275Z,16.25
2018-06-18T02:19:41.056Z,16.16
2018-06-18T02:22:09.873Z,16.02
2018-06-18T02:24:38.729Z,16.04
2018-06-18T02:27:12.467Z,15.90
2018-06-18T02:29:46.514Z,15.91
2018-06-18T02:32:20.266Z,15.89
2018-06-18T02:34:54.477Z,15.89
2018-06-18T02:37:28.280Z,15.91
2018-06-18T02:40:02.180Z,15.91
2018-06-18T02:42:31.111Z,15.95
2018-06-18T02:44:59.965Z,15.96
2018-06-18T02:47:28.777Z,15.97
2018-06-18T02:49:57.535Z,16.01
2018-06-18T02:52:26.300Z,16.04
2018-06-18T02:54:55.608Z,16.06
2018-06-18T02:57:24.361Z,16.11
2018-06-18T02:59:53.178Z,16.16
2018-06-18T03:02:22.421Z,16.19
2018-06-18T03:04:51.240Z,16.20
2018-06-18T03:07:20.018Z,16.24
2018-06-18T03:09:48.837Z,16.23
2018-06-18T03:12:17.594Z,16.22
2018-06-18T03:14:46.388Z,16.23
2018-06-18T03:17:15.219Z,16.24
2018-06-18T03:19:49.117Z,16.25
2018-06-18T03:22:23.175Z,16.33
2018-06-18T03:24:57.216Z,16.45
2018-06-18T03:27:31.259Z,16.60
2018-06-18T03:30:00.048Z,16.97
2018-06-18T03:32:28.868Z,17.41
2018-06-18T03:34:57.689Z,18.16
2018-06-18T03:37:27.160Z,18.86
2018-06-18T03:39:56.078Z,19.14
2018-06-18T03:42:24.955Z,19.06
2018-06-18T03:45:01.824Z,18.83
2018-06-18T03:47:31.338Z,18.57
2018-06-18T03:50:00.154Z,18.44
2018-06-18T03:52:28.927Z,18.40
2018-06-18T03:55:00.036Z,18.50
2018-06-18T03:57:28.813Z,18.57
2018-06-18T03:59:57.618Z,18.56
2018-06-18T04:02:37.502Z,18.63
2018-06-18T04:05:11.631Z,18.69
2018-06-18T04:07:45.539Z,18.88
2018-06-18T04:10:19.883Z,18.93
2018-06-18T04:12:48.750Z,18.90
2018-06-18T04:15:17.526Z,18.81
2018-06-18T04:17:46.408Z,18.89
2018-06-18T04:20:15.226Z,19.10
2018-06-18T04:22:44.005Z,19.53
2018-06-18T04:25:12.966Z,20.39
2018-06-18T04:27:41.854Z,21.35
2018-06-18T04:30:10.619Z,21.87
2018-06-18T04:32:39.399Z,21.87
2018-06-18T04:35:09.539Z,21.72
2018-06-18T04:37:38.343Z,21.77
2018-06-18T04:40:08.004Z,22.10
2018-06-18T04:42:41.863Z,22.48
2018-06-18T04:45:15.826Z,23.42
2018-06-18T04:47:49.779Z,25.27
2018-06-18T04:50:23.606Z,27.27
2018-06-18T04:52:52.421Z,28.40
2018-06-18T04:55:21.176Z,28.56
2018-06-18T04:57:49.980Z,28.39
2018-06-18T05:01:32.518Z,28.53
2018-06-18T05:04:01.354Z,30.63
2018-06-18T05:06:31.090Z,31.55
2018-06-18T05:09:09.779Z,31.90
2018-06-18T05:11:38.639Z,32.33
2018-06-18T05:14:07.735Z,32.75
2018-06-18T05:16:36.834Z,33.22
2018-06-18T05:19:05.848Z,32.41
2018-06-18T05:21:34.777Z,30.82
2018-06-18T05:24:04.078Z,29.35
2018-06-18T05:26:33.787Z,28.41
2018-06-18T05:29:02.635Z,27.72
2018-06-18T05:31:31.497Z,27.06
2018-06-18T05:34:00.295Z,26.69
2018-06-18T05:36:29.088Z,26.35
2018-06-18T05:38:57.911Z,26.01
2018-06-18T05:41:26.689Z,25.55
2018-06-18T05:43:55.447Z,24.80
2018-06-18T05:46:24.485Z,24.85
2018-06-18T05:48:53.328Z,24.67
2018-06-18T05:51:22.123Z,24.60
2018-06-18T05:53:51.026Z,24.73
2018-06-18T05:56:19.834Z,24.71
2018-06-18T05:58:48.627Z,24.68
2018-06-18T06:01:17.462Z,24.41
2018-06-18T06:03:46.250Z,24.77
2018-06-18T06:06:15.252Z,24.97
2018-06-18T06:08:44.053Z,24.99
2018-06-18T06:11:12.987Z,25.11
2018-06-18T06:13:41.798Z,25.22
2018-06-18T06:16:10.616Z,25.22
2018-06-18T06:18:39.414Z,25.23
2018-06-18T06:21:10.409Z,25.64
2018-06-18T06:23:39.293Z,26.21
2018-06-18T06:26:08.068Z,26.72
2018-06-18T06:28:36.899Z,27.16
2018-06-18T06:31:05.874Z,27.31
2018-06-18T06:33:34.732Z,27.77
2018-06-18T06:36:04.155Z,27.93
2018-06-18T06:38:33.284Z,28.10
2018-06-18T06:41:02.085Z,28.82
2018-06-18T06:43:30.868Z,28.97
2018-06-18T06:45:59.905Z,28.86
2018-06-18T06:48:28.712Z,28.72
2018-06-18T06:50:57.540Z,29.25
2018-06-18T06:53:26.371Z,29.50
2018-06-18T06:55:55.283Z,29.02
2018-06-18T06:58:24.088Z,28.73
2018-06-18T07:00:53.012Z,28.76
2018-06-18T07:03:21.963Z,29.20
2018-06-18T07:05:50.740Z,29.15
2018-06-18T07:08:19.715Z,29.31
2018-06-18T07:10:48.498Z,29.51
2018-06-18T07:13:17.308Z,29.34
2018-06-18T07:15:46.260Z,29.02
2018-06-18T07:18:15.072Z,28.59
2018-06-18T07:20:43.887Z,28.57
2018-06-18T07:23:12.694Z,28.48
2018-06-18T07:25:41.527Z,28.39
2018-06-18T07:28:10.289Z,28.93
2018-06-18T07:30:39.099Z,29.13
2018-06-18T07:33:07.851Z,29.37
2018-06-18T07:35:36.632Z,29.65
2018-06-18T07:38:05.545Z,29.73
2018-06-18T07:40:34.392Z,29.68
2018-06-18T07:43:03.188Z,29.73
2018-06-18T07:45:32.089Z,29.84
2018-06-18T07:48:00.892Z,29.83
2018-06-18T07:50:29.691Z,29.64
2018-06-18T07:52:58.508Z,29.44
2018-06-18T07:55:27.320Z,29.08
2018-06-18T07:57:56.097Z,29.21
2018-06-18T08:00:25.292Z,29.35
2018-06-18T08:02:54.094Z,29.49
2018-06-18T08:05:22.946Z,29.52
2018-06-18T08:07:51.757Z,28.85
2018-06-18T08:10:20.548Z,29.00
2018-06-18T08:12:49.312Z,28.91
2018-06-18T08:15:18.146Z,28.61
2018-06-18T08:17:46.993Z,28.61
2018-06-18T08:20:16.399Z,28.45
2018-06-18T08:22:46.219Z,28.29
2018-06-18T08:25:15.139Z,28.27
2018-06-18T08:27:44.055Z,27.85
2018-06-18T08:30:12.902Z,27.60
2018-06-18T08:32:41.699Z,27.14
2018-06-18T08:35:10.529Z,27.08
2018-06-18T08:37:39.393Z,27.07
2018-06-18T08:40:08.203Z,27.24
2018-06-18T08:42:37.048Z,27.39
2018-06-18T08:45:06.199Z,27.28
2018-06-18T08:47:35.067Z,27.49
2018-06-18T08:50:09.012Z,27.66
2018-06-18T08:52:42.849Z,27.71
2018-06-18T08:55:16.783Z,27.58
2018-06-18T08:57:50.688Z,27.42
2018-06-18T09:00:24.587Z,27.15
2018-06-18T09:02:58.451Z,27.36
2018-06-18T09:05:32.357Z,27.26
2018-06-18T09:08:02.184Z,27.38
2018-06-18T09:10:31.103Z,27.57
2018-06-18T09:12:59.907Z,27.87
2018-06-18T09:15:28.736Z,28.20
2018-06-18T09:17:57.521Z,28.28
2018-06-18T09:20:26.631Z,28.34
2018-06-18T09:22:55.402Z,28.42
2018-06-18T09:25:24.186Z,27.84
2018-06-18T09:27:53.039Z,27.93
2018-06-18T09:30:21.924Z,27.98
2018-06-18T09:32:50.744Z,27.97
2018-06-18T09:35:19.736Z,27.55
2018-06-18T09:37:48.544Z,27.88
2018-06-18T09:40:17.331Z,28.11
2018-06-18T09:42:46.506Z,28.34
2018-06-18T09:45:15.322Z,28.42
2018-06-18T09:47:44.115Z,28.35
2018-06-18T09:50:18.037Z,28.26
2018-06-18T09:52:53.077Z,27.97
2018-06-18T09:57:28.884Z,27.82
2018-06-18T10:00:00.830Z,27.14
2018-06-18T10:02:29.822Z,26.82
2018-06-18T10:04:59.869Z,27.01
2018-06-18T10:07:28.678Z,27.04
2018-06-18T10:09:57.692Z,26.70
2018-06-18T10:12:26.611Z,26.90
2018-06-18T10:14:55.515Z,27.01
2018-06-18T10:17:24.435Z,26.98
2018-06-18T10:19:53.226Z,27.19
2018-06-18T10:22:22.062Z,27.50
2018-06-18T10:24:50.973Z,28.08
2018-06-18T10:27:19.886Z,28.55
2018-06-18T10:29:48.699Z,28.51
2018-06-18T10:32:22.508Z,28.87
2018-06-18T10:34:56.610Z,28.74
2018-06-18T10:37:30.595Z,28.11
2018-06-18T10:40:04.447Z,27.56
2018-06-18T10:42:38.456Z,26.85
2018-06-18T10:45:07.327Z,26.51
2018-06-18T10:47:36.229Z,25.78
2018-06-18T10:50:05.072Z,25.56
2018-06-18T10:52:33.866Z,26.03
2018-06-18T10:55:02.755Z,26.15
2018-06-18T10:57:31.692Z,26.00
2018-06-18T11:00:00.533Z,25.85
2018-06-18T11:02:29.425Z,25.86
2018-06-18T11:05:02.217Z,25.97
2018-06-18T11:07:31.628Z,25.90
2018-06-18T11:10:00.509Z,25.85
2018-06-18T11:12:29.319Z,25.94
2018-06-18T11:14:58.116Z,25.94
2018-06-18T11:17:32.161Z,25.70
2018-06-18T11:20:06.133Z,25.55
2018-06-18T11:22:39.992Z,25.26
2018-06-18T11:25:13.885Z,24.91
2018-06-18T11:27:44.176Z,24.79
2018-06-18T11:30:13.067Z,24.82
2018-06-18T11:32:41.867Z,24.72
2018-06-18T11:35:10.995Z,24.41
2018-06-18T11:37:39.877Z,24.56
2018-06-18T11:40:08.647Z,24.70
2018-06-18T11:42:37.494Z,25.11
2018-06-18T11:45:06.328Z,25.35
2018-06-18T11:47:35.131Z,25.65
2018-06-18T11:50:04.089Z,26.04
2018-06-18T11:52:32.952Z,26.37
2018-06-18T11:55:01.781Z,26.70
2018-06-18T11:57:31.349Z,26.54
2018-06-18T12:00:05.105Z,26.77
2018-06-18T12:02:38.988Z,27.12
2018-06-18T12:05:12.853Z,27.25
2018-06-18T12:09:48.866Z,27.17
2018-06-18T12:12:17.665Z,26.60
2018-06-18T12:14:46.442Z,26.62
2018-06-18T12:17:15.357Z,26.54
2018-06-18T12:19:44.169Z,25.91
2018-06-18T12:22:13.058Z,25.28
2018-06-18T12:24:41.977Z,25.00
2018-06-18T12:27:13.092Z,24.76
2018-06-18T12:29:41.882Z,24.54
2018-06-18T12:32:11.031Z,24.46
2018-06-18T12:34:39.844Z,24.63
2018-06-18T12:37:08.670Z,24.73
2018-06-18T12:39:37.460Z,24.77
2018-06-18T12:42:07.461Z,24.89
2018-06-18T12:44:43.875Z,24.78
2018-06-18T12:47:17.660Z,24.90
2018-06-18T12:49:51.884Z,24.97
2018-06-18T12:52:25.733Z,25.10
2018-06-18T12:54:59.951Z,25.20
2018-06-18T12:57:28.754Z,25.03
2018-06-18T12:59:57.545Z,25.15
2018-06-18T13:02:31.268Z,25.40
2018-06-18T13:05:01.868Z,25.66
2018-06-18T13:07:30.666Z,25.93
2018-06-18T13:09:59.769Z,26.21
2018-06-18T13:12:28.789Z,26.50
2018-06-18T13:14:57.577Z,26.71
2018-06-18T13:17:26.405Z,26.75
2018-06-18T13:19:55.196Z,26.76
2018-06-18T13:22:24.091Z,26.72
2018-06-18T13:24:53.110Z,26.48
2018-06-18T13:27:26.048Z,26.49
2018-06-18T13:29:54.879Z,26.40
2018-06-18T13:32:23.715Z,26.56
2018-06-18T13:34:52.528Z,26.57
2018-06-18T13:37:26.690Z,26.56
2018-06-18T13:40:00.595Z,26.66
2018-06-18T13:42:34.604Z,26.76
2018-06-18T13:45:08.498Z,26.71
2018-06-18T13:47:42.513Z,26.87
2018-06-18T13:50:11.313Z,26.82
2018-06-18T13:52:40.177Z,26.83
2018-06-18T13:55:09.467Z,26.89
2018-06-18T13:57:38.280Z,26.96
2018-06-18T14:00:08.171Z,26.91
2018-06-18T14:02:37.168Z,26.75
2018-06-18T14:05:05.962Z,26.68
2018-06-18T14:07:34.938Z,26.73
2018-06-18T14:10:03.797Z,26.69
2018-06-18T14:12:32.583Z,26.64
2018-06-18T14:15:01.392Z,26.75
2018-06-18T14:17:30.360Z,26.50
2018-06-18T14:20:04.350Z,26.59
2018-06-18T14:22:33.408Z,26.14
2018-06-18T14:25:02.241Z,25.38
2018-06-18T14:27:31.062Z,24.51
2018-06-18T14:30:04.973Z,24.09
2018-06-18T14:32:38.840Z,23.66
2018-06-18T14:35:13.207Z,23.43
2018-06-18T14:37:47.150Z,22.89
2018-06-18T14:40:18.306Z,22.31
2018-06-18T14:42:47.047Z,21.83
